OMRK/RKT METAR and TAF weather

Enter ICAO airport designator
Station Type Date Time Source
OMRK METAR 2019/05/25 15:00 UTC NOAA

OMRK 251500Z 33007KT CAVOK 33/19 Q1006 A2972


Station Type Date Time Source
OMRK Decoded METAR 2019/05/25 15:00 UTC NOAA

Ras Al Khaimah International Airport, United Arab Emirates (OMRK) 25-37N 055-56E 31M
May 25, 2019 - 11:00 AM EDT / 2019.05.25 1500 UTC
Wind: from the NNW (330 degrees) at 8 MPH (7 KT):0
Visibility: greater than 7 mile(s):0
Temperature: 91 F (33 C)
Dew Point: 66 F (19 C)
Relative Humidity: 43%
Pressure (altimeter): 29.72 in. Hg (1006 hPa)
ob: OMRK 251500Z 33007KT CAVOK 33/19 Q1006 A2972
cycle: 15

Station Type Date Time Source
OMRK TAF 2019/05/25 12:03 UTC NOAA

TAF OMRK 251054Z 2512/2618 35010KT CAVOK
BECMG 2515/2517 VRB02KT
BECMG 2608/2610 34014KT
BECMG 2616/2618 06005KT

Example: see airport list